createdAt,value
2022-10-20T00:04:19.670Z,9.51
2022-10-20T00:06:47.651Z,9.40
2022-10-20T00:09:16.601Z,9.44
2022-10-20T00:11:45.886Z,9.43
2022-10-20T00:14:13.686Z,9.51
2022-10-20T00:16:41.511Z,9.57
2022-10-20T00:19:09.148Z,9.44
2022-10-20T00:21:36.727Z,9.38
2022-10-20T00:24:04.721Z,9.39
2022-10-20T00:26:34.528Z,9.40
2022-10-20T00:29:03.466Z,9.41
2022-10-20T00:31:31.788Z,9.51
2022-10-20T00:33:59.330Z,9.45
2022-10-20T00:36:27.008Z,9.43
2022-10-20T00:38:58.988Z,9.46
2022-10-20T00:41:26.950Z,9.37
2022-10-20T00:43:57.996Z,9.35
2022-10-20T00:46:29.638Z,9.34
2022-10-20T00:48:59.577Z,9.41
2022-10-20T00:51:30.070Z,9.39
2022-10-20T00:54:04.328Z,9.27
2022-10-20T00:56:32.826Z,9.28
2022-10-20T00:59:03.480Z,9.28
2022-10-20T01:01:31.231Z,9.30
2022-10-20T01:03:59.237Z,9.32
2022-10-20T01:06:26.853Z,9.38
2022-10-20T01:08:55.583Z,9.21
2022-10-20T01:11:33.225Z,9.14
2022-10-20T01:14:15.399Z,9.12
2022-10-20T01:16:52.932Z,9.15
2022-10-20T01:19:55.810Z,9.05
2022-10-20T01:22:37.457Z,9.09
2022-10-20T01:25:18.985Z,9.06
2022-10-20T01:27:51.622Z,9.12
2022-10-20T01:30:21.179Z,9.02
2022-10-20T01:33:02.528Z,9.02
2022-10-20T01:35:40.682Z,9.03
2022-10-20T01:38:17.028Z,9.05
2022-10-20T01:40:49.524Z,9.05
2022-10-20T01:43:22.771Z,9.06
2022-10-20T01:45:53.528Z,9.05
2022-10-20T01:48:24.742Z,8.93
2022-10-20T01:50:52.991Z,8.91
2022-10-20T01:53:21.360Z,8.97
2022-10-20T01:55:51.909Z,8.99
2022-10-20T01:58:45.165Z,9.03
2022-10-20T02:01:21.366Z,9.06
2022-10-20T02:03:54.082Z,8.99
2022-10-20T02:06:32.349Z,9.04
2022-10-20T02:09:02.443Z,8.91
2022-10-20T02:11:39.548Z,8.87
2022-10-20T02:14:11.181Z,8.86
2022-10-20T02:16:44.113Z,8.87
2022-10-20T02:19:14.325Z,8.85
2022-10-20T02:21:41.974Z,8.86
2022-10-20T02:24:10.878Z,8.78
2022-10-20T02:26:41.087Z,8.77
2022-10-20T02:29:14.907Z,8.75
2022-10-20T02:31:43.745Z,8.63
2022-10-20T02:34:12.113Z,8.77
2022-10-20T02:36:41.547Z,8.75
2022-10-20T02:39:09.874Z,8.75
2022-10-20T02:41:38.098Z,8.75
2022-10-20T02:44:05.831Z,8.74
2022-10-20T02:46:34.843Z,8.72
2022-10-20T02:49:02.476Z,8.68
2022-10-20T02:51:30.083Z,8.75
2022-10-20T02:53:57.933Z,8.76
2022-10-20T02:56:27.613Z,8.84
2022-10-20T02:58:57.857Z,8.80
2022-10-20T03:01:25.861Z,8.81
2022-10-20T03:03:58.558Z,8.71
2022-10-20T03:06:26.763Z,8.79
2022-10-20T03:08:54.508Z,8.71
2022-10-20T03:11:22.215Z,8.69
2022-10-20T03:13:49.868Z,8.76
2022-10-20T03:16:17.563Z,8.74
2022-10-20T03:18:45.161Z,8.62
2022-10-20T03:21:14.028Z,8.66
2022-10-20T03:23:41.674Z,8.73
2022-10-20T03:26:11.410Z,8.63
2022-10-20T03:28:40.490Z,8.70
2022-10-20T03:31:08.816Z,8.73
2022-10-20T03:33:36.379Z,8.75
2022-10-20T03:36:04.644Z,8.66
2022-10-20T03:38:33.592Z,8.64
2022-10-20T03:43:33.745Z,8.60
2022-10-20T03:46:05.515Z,8.56
2022-10-20T03:48:33.692Z,8.50
2022-10-20T03:51:02.278Z,8.51
2022-10-20T03:53:30.568Z,8.55
2022-10-20T03:55:59.806Z,8.52
2022-10-20T03:58:27.324Z,8.60
2022-10-20T04:00:55.400Z,8.56
2022-10-20T04:03:22.939Z,8.66
2022-10-20T04:05:50.808Z,8.64
2022-10-20T04:08:18.367Z,8.70
2022-10-20T04:10:45.947Z,8.66
2022-10-20T04:13:14.869Z,8.62
2022-10-20T04:15:42.476Z,8.52
2022-10-20T04:18:10.148Z,8.66
2022-10-20T04:20:39.405Z,8.58
2022-10-20T04:23:09.644Z,8.65
2022-10-20T04:25:45.312Z,8.64
2022-10-20T04:28:13.077Z,8.53
2022-10-20T04:30:42.521Z,8.51
2022-10-20T04:33:10.458Z,8.63
2022-10-20T04:35:38.049Z,8.65
2022-10-20T04:38:06.441Z,8.66
2022-10-20T04:40:34.256Z,8.65
2022-10-20T04:43:02.268Z,8.59
2022-10-20T04:45:29.941Z,8.63
2022-10-20T04:47:58.877Z,8.60
2022-10-20T04:50:26.539Z,8.61
2022-10-20T04:52:54.116Z,8.70
2022-10-20T04:55:21.811Z,8.66
2022-10-20T04:57:49.592Z,8.71
2022-10-20T05:00:17.345Z,8.63
2022-10-20T05:02:45.050Z,8.67
2022-10-20T05:05:14.293Z,8.65
2022-10-20T05:07:41.809Z,8.62
2022-10-20T05:10:09.995Z,8.65
2022-10-20T05:12:37.884Z,8.62
2022-10-20T05:15:06.630Z,8.61
2022-10-20T05:17:34.171Z,8.63
2022-10-20T05:20:01.727Z,8.62
2022-10-20T05:22:31.745Z,8.58
2022-10-20T05:25:12.728Z,8.55
2022-10-20T05:27:46.812Z,8.58
2022-10-20T05:30:14.358Z,8.52
2022-10-20T05:32:41.900Z,8.55
2022-10-20T05:35:10.031Z,8.47
2022-10-20T05:37:38.930Z,8.43
2022-10-20T05:40:08.216Z,8.44
2022-10-20T05:42:36.862Z,8.52
2022-10-20T05:45:05.360Z,8.44
2022-10-20T05:47:33.267Z,8.44
2022-10-20T05:50:00.778Z,8.45
2022-10-20T05:52:28.601Z,8.46
2022-10-20T05:54:57.512Z,8.50
2022-10-20T05:57:25.099Z,8.54
2022-10-20T05:59:52.652Z,8.59
2022-10-20T06:02:20.814Z,8.72
2022-10-20T06:04:48.352Z,8.81
2022-10-20T06:07:16.187Z,8.81
2022-10-20T06:09:43.708Z,8.82
2022-10-20T06:12:12.597Z,8.89
2022-10-20T06:14:40.221Z,8.95
2022-10-20T06:17:07.762Z,9.18
2022-10-20T06:19:35.380Z,9.14
2022-10-20T06:22:05.940Z,9.20
2022-10-20T06:24:34.642Z,9.34
2022-10-20T06:27:02.291Z,9.35
2022-10-20T06:29:31.197Z,9.56
2022-10-20T06:31:58.703Z,9.68
2022-10-20T06:34:27.256Z,9.81
2022-10-20T06:36:54.874Z,9.64
2022-10-20T06:39:24.537Z,9.78
2022-10-20T06:41:53.353Z,9.64
2022-10-20T06:44:22.642Z,9.72
2022-10-20T06:46:52.684Z,9.77
2022-10-20T06:49:20.772Z,9.81
2022-10-20T06:51:48.626Z,9.57
2022-10-20T06:54:16.251Z,9.70
2022-10-20T06:56:43.771Z,9.54
2022-10-20T06:59:13.292Z,9.50
2022-10-20T07:01:42.143Z,9.60
2022-10-20T07:04:15.328Z,9.63
2022-10-20T07:06:45.415Z,9.57
2022-10-20T07:09:15.113Z,9.68
2022-10-20T07:11:43.125Z,9.69
2022-10-20T07:14:12.406Z,9.80
2022-10-20T07:16:40.115Z,9.66
2022-10-20T07:19:07.768Z,9.72
2022-10-20T07:21:40.199Z,9.71
2022-10-20T07:24:09.621Z,9.83
2022-10-20T07:26:39.242Z,10.09
2022-10-20T07:29:07.283Z,9.90
2022-10-20T07:31:37.686Z,9.78
2022-10-20T07:34:20.407Z,9.87
2022-10-20T07:36:54.318Z,9.99
2022-10-20T07:39:22.115Z,10.29
2022-10-20T07:41:49.698Z,10.71
2022-10-20T07:44:18.053Z,11.00
2022-10-20T07:46:45.831Z,11.35
2022-10-20T07:52:02.407Z,10.92
2022-10-20T07:54:30.037Z,10.99
2022-10-20T07:56:57.577Z,10.93
2022-10-20T07:59:25.337Z,10.98
2022-10-20T08:01:57.392Z,10.80
2022-10-20T08:04:26.288Z,10.66
2022-10-20T08:06:53.919Z,10.88
2022-10-20T08:09:22.832Z,10.99
2022-10-20T08:11:54.604Z,11.05
2022-10-20T08:14:23.929Z,10.80
2022-10-20T08:19:48.223Z,11.17
2022-10-20T08:22:16.173Z,11.29
2022-10-20T08:24:45.111Z,11.71
2022-10-20T08:27:12.709Z,11.25
2022-10-20T08:29:40.399Z,11.26
2022-10-20T08:32:08.281Z,11.61
2022-10-20T08:34:35.902Z,11.46
2022-10-20T08:37:03.600Z,11.46
2022-10-20T08:39:31.326Z,11.33
2022-10-20T08:42:08.507Z,11.23
2022-10-20T08:44:38.258Z,11.38
2022-10-20T08:47:15.127Z,11.48
2022-10-20T08:49:45.700Z,11.50
2022-10-20T08:52:15.789Z,11.58
2022-10-20T08:54:43.728Z,11.70
2022-10-20T08:57:23.258Z,11.71
2022-10-20T08:59:53.410Z,11.83
2022-10-20T09:02:21.365Z,11.61
2022-10-20T09:04:52.600Z,11.95
2022-10-20T09:07:26.567Z,11.81
2022-10-20T09:09:58.874Z,11.89
2022-10-20T09:12:31.120Z,11.84
2022-10-20T09:14:58.955Z,12.32
2022-10-20T09:17:26.645Z,12.62
2022-10-20T09:19:58.723Z,12.64
2022-10-20T09:22:33.347Z,12.17
2022-10-20T09:25:03.202Z,11.84
2022-10-20T09:27:35.165Z,11.81
2022-10-20T09:30:15.603Z,12.09
2022-10-20T09:32:56.300Z,12.20
2022-10-20T09:35:27.004Z,12.30
2022-10-20T09:37:59.441Z,12.39
2022-10-20T09:40:27.843Z,12.60
2022-10-20T09:43:00.043Z,12.33
2022-10-20T09:45:30.529Z,12.71
2022-10-20T09:48:04.277Z,13.38
2022-10-20T09:50:34.719Z,13.26
2022-10-20T09:53:05.802Z,13.16
2022-10-20T09:55:36.054Z,13.64
2022-10-20T09:58:06.861Z,12.89
2022-10-20T10:00:39.444Z,12.64
2022-10-20T10:03:20.838Z,13.24
2022-10-20T10:05:52.892Z,13.07
2022-10-20T10:08:22.652Z,13.03
2022-10-20T10:11:00.637Z,13.23
2022-10-20T10:13:32.125Z,12.92
2022-10-20T10:16:02.640Z,12.79
2022-10-20T10:18:30.795Z,12.87
2022-10-20T10:21:01.160Z,12.51
2022-10-20T10:23:30.151Z,12.36
2022-10-20T10:26:02.023Z,12.43
2022-10-20T10:28:38.490Z,12.73
2022-10-20T10:31:22.327Z,13.06
2022-10-20T10:33:52.870Z,13.12
2022-10-20T10:36:34.167Z,13.39
2022-10-20T10:39:03.188Z,13.07
2022-10-20T10:41:51.735Z,13.02
2022-10-20T10:44:34.790Z,12.69
2022-10-20T10:47:15.061Z,13.13
2022-10-20T10:49:54.710Z,13.38
2022-10-20T10:52:35.921Z,13.25
2022-10-20T10:55:30.549Z,12.93
2022-10-20T11:00:56.913Z,12.67
2022-10-20T11:04:03.887Z,12.39
2022-10-20T11:06:38.133Z,12.32
2022-10-20T11:09:20.806Z,12.45
2022-10-20T11:12:15.977Z,12.35
2022-10-20T11:14:58.438Z,12.39
2022-10-20T11:17:43.947Z,12.93
2022-10-20T11:20:27.449Z,12.73
2022-10-20T11:23:22.776Z,12.93
2022-10-20T11:25:57.173Z,13.08
2022-10-20T11:28:32.177Z,13.07
2022-10-20T11:31:00.407Z,13.26
2022-10-20T11:33:39.330Z,14.01
2022-10-20T11:36:15.872Z,14.03
2022-10-20T11:38:47.888Z,14.01
2022-10-20T11:41:19.253Z,13.42
2022-10-20T11:43:54.078Z,14.05
2022-10-20T11:46:26.667Z,13.72
2022-10-20T11:49:00.219Z,13.69
2022-10-20T11:51:56.510Z,13.30
2022-10-20T11:54:44.877Z,13.21
2022-10-20T11:57:24.389Z,13.10
2022-10-20T12:00:11.598Z,13.28
2022-10-20T12:03:13.399Z,13.44
2022-10-20T12:06:09.957Z,13.29
2022-10-20T12:09:21.660Z,13.32
2022-10-20T12:11:54.737Z,13.66
2022-10-20T12:14:28.635Z,13.92
2022-10-20T12:17:21.854Z,14.17
2022-10-20T12:19:51.603Z,14.28
2022-10-20T12:22:40.665Z,13.97
2022-10-20T12:25:36.810Z,14.10
2022-10-20T12:28:43.114Z,13.57
2022-10-20T12:31:10.687Z,13.70
2022-10-20T12:33:42.058Z,13.75
2022-10-20T12:36:34.294Z,13.63
2022-10-20T12:39:16.966Z,13.59
2022-10-20T12:41:56.528Z,13.38
2022-10-20T12:44:24.688Z,13.36
2022-10-20T12:46:59.038Z,13.45
2022-10-20T12:49:31.403Z,13.53
2022-10-20T12:52:00.445Z,13.73
2022-10-20T12:54:35.586Z,13.70
2022-10-20T12:57:06.516Z,13.62
2022-10-20T12:59:40.242Z,13.44
2022-10-20T13:02:47.724Z,13.44
2022-10-20T13:05:49.153Z,13.54
2022-10-20T13:08:29.732Z,13.72
2022-10-20T13:11:41.746Z,13.92
2022-10-20T13:14:33.294Z,13.88
2022-10-20T13:17:07.541Z,13.97
2022-10-20T13:19:44.468Z,13.69
2022-10-20T13:22:37.866Z,13.63
2022-10-20T13:25:14.076Z,13.53
2022-10-20T13:27:43.057Z,13.36
2022-10-20T13:30:19.262Z,13.59
2022-10-20T13:33:11.202Z,13.51
2022-10-20T13:35:51.647Z,13.24
2022-10-20T13:38:25.352Z,13.41
2022-10-20T13:43:39.578Z,13.46
2022-10-20T13:46:22.167Z,13.24
2022-10-20T13:49:13.322Z,13.24
2022-10-20T13:51:45.139Z,13.25
2022-10-20T13:54:22.595Z,13.52
2022-10-20T13:56:51.231Z,13.20
2022-10-20T13:59:24.730Z,13.23
2022-10-20T14:01:55.209Z,13.12
2022-10-20T14:04:28.087Z,13.31
2022-10-20T14:06:56.381Z,13.31
2022-10-20T14:09:26.074Z,13.26
2022-10-20T14:11:57.094Z,13.24
2022-10-20T14:14:28.245Z,13.16
2022-10-20T14:16:58.454Z,13.49
2022-10-20T14:19:28.095Z,13.37
2022-10-20T14:21:57.813Z,13.54
2022-10-20T14:24:31.953Z,13.60
2022-10-20T14:27:01.552Z,13.68
2022-10-20T14:29:35.530Z,13.76
2022-10-20T14:32:03.240Z,13.83
2022-10-20T14:34:37.670Z,13.82
2022-10-20T14:37:08.564Z,13.51
2022-10-20T14:39:38.681Z,13.38
2022-10-20T14:42:20.001Z,13.29
2022-10-20T14:44:50.468Z,13.04
2022-10-20T14:47:19.991Z,13.29
2022-10-20T14:49:52.377Z,13.46
2022-10-20T14:52:23.043Z,13.47
2022-10-20T14:54:51.471Z,13.36
2022-10-20T14:57:31.760Z,13.11
2022-10-20T15:00:03.971Z,13.13
2022-10-20T15:02:33.544Z,13.08
2022-10-20T15:05:23.273Z,13.06
2022-10-20T15:07:51.534Z,13.08
2022-10-20T15:10:21.645Z,12.87
2022-10-20T15:12:52.106Z,12.90
2022-10-20T15:15:23.955Z,12.85
2022-10-20T15:17:53.114Z,12.93
2022-10-20T15:20:33.147Z,12.87
2022-10-20T15:23:02.699Z,12.86
2022-10-20T15:25:32.028Z,12.79
2022-10-20T15:28:00.400Z,12.74
2022-10-20T15:30:30.124Z,12.66
2022-10-20T15:32:57.804Z,12.70
2022-10-20T15:35:25.651Z,12.74
2022-10-20T15:37:54.654Z,12.73
2022-10-20T15:40:22.619Z,12.78
2022-10-20T15:42:50.212Z,12.75
2022-10-20T15:45:19.782Z,12.65
2022-10-20T15:47:48.763Z,12.69
2022-10-20T15:50:18.490Z,12.66
2022-10-20T15:52:48.134Z,12.59
2022-10-20T15:55:22.545Z,12.62
2022-10-20T15:57:51.474Z,12.69
2022-10-20T16:00:20.154Z,12.70
2022-10-20T16:02:50.263Z,12.77
2022-10-20T16:05:19.078Z,12.80
2022-10-20T16:07:47.182Z,12.85
2022-10-20T16:10:15.110Z,12.86
2022-10-20T16:12:42.678Z,12.68
2022-10-20T16:15:12.189Z,12.72
2022-10-20T16:17:39.891Z,12.81
2022-10-20T16:20:10.378Z,12.78
2022-10-20T16:22:38.422Z,12.73
2022-10-20T16:25:07.042Z,12.81
2022-10-20T16:27:35.360Z,12.82
2022-10-20T16:30:04.572Z,12.75
2022-10-20T16:32:34.634Z,12.53
2022-10-20T16:35:03.544Z,12.60
2022-10-20T16:37:33.123Z,12.45
2022-10-20T16:40:00.950Z,12.56
2022-10-20T16:42:30.247Z,12.53
2022-10-20T16:44:58.556Z,12.54
2022-10-20T16:47:26.847Z,12.66
2022-10-20T16:49:54.515Z,12.68
2022-10-20T16:52:22.285Z,12.66
2022-10-20T16:54:51.182Z,12.67
2022-10-20T16:57:18.743Z,12.67
2022-10-20T16:59:49.860Z,12.52
2022-10-20T17:02:18.470Z,12.47
2022-10-20T17:04:49.191Z,12.50
2022-10-20T17:07:16.924Z,12.40
2022-10-20T17:09:44.612Z,12.39
2022-10-20T17:12:13.610Z,12.39
2022-10-20T17:14:41.568Z,12.45
2022-10-20T17:17:09.269Z,12.47
2022-10-20T17:19:36.900Z,12.54
2022-10-20T17:22:04.527Z,12.60
2022-10-20T17:24:32.191Z,12.65
2022-10-20T17:26:59.713Z,12.74
2022-10-20T17:29:28.726Z,12.69
2022-10-20T17:31:56.261Z,12.69
2022-10-20T17:34:23.851Z,12.69
2022-10-20T17:36:51.455Z,12.74
2022-10-20T17:39:21.958Z,12.83
2022-10-20T17:41:49.544Z,12.64
2022-10-20T17:44:17.182Z,12.67
2022-10-20T17:46:46.176Z,12.78
2022-10-20T17:49:14.111Z,12.63
2022-10-20T17:51:43.504Z,12.71
2022-10-20T17:54:11.338Z,12.79
2022-10-20T17:56:40.089Z,12.79
2022-10-20T17:59:08.524Z,12.73
2022-10-20T18:01:37.912Z,12.70
2022-10-20T18:04:09.143Z,12.53
2022-10-20T18:06:37.679Z,12.40
2022-10-20T18:09:10.678Z,12.44
2022-10-20T18:11:40.073Z,12.41
2022-10-20T18:14:07.723Z,12.37
2022-10-20T18:16:37.978Z,12.32
2022-10-20T18:19:07.894Z,12.31
2022-10-20T18:21:36.115Z,12.50
2022-10-20T18:24:06.432Z,12.59
2022-10-20T18:26:36.045Z,12.68
2022-10-20T18:29:05.033Z,12.74
2022-10-20T18:31:34.714Z,12.75
2022-10-20T18:34:06.867Z,12.78
2022-10-20T18:36:40.706Z,12.80
2022-10-20T18:39:11.557Z,12.90
2022-10-20T18:41:41.113Z,12.71
2022-10-20T18:44:12.451Z,12.75
2022-10-20T18:46:40.858Z,12.87
2022-10-20T18:49:10.082Z,12.86
2022-10-20T18:51:39.049Z,12.86
2022-10-20T18:54:08.482Z,12.92
2022-10-20T18:56:36.916Z,12.94
2022-10-20T18:59:09.130Z,12.95
2022-10-20T19:01:38.527Z,13.00
2022-10-20T19:04:07.485Z,12.98
2022-10-20T19:06:37.641Z,13.01
2022-10-20T19:09:09.047Z,13.04
2022-10-20T19:11:39.128Z,13.04
2022-10-20T19:14:09.440Z,13.03
2022-10-20T19:16:37.826Z,13.03
2022-10-20T19:19:07.973Z,13.04
2022-10-20T19:21:38.996Z,13.01
2022-10-20T19:24:10.178Z,12.93
2022-10-20T19:26:40.454Z,12.84
2022-10-20T19:29:10.817Z,12.77
2022-10-20T19:31:41.256Z,12.78
2022-10-20T19:34:11.338Z,12.78
2022-10-20T19:36:40.442Z,12.85
2022-10-20T19:39:12.015Z,12.90
2022-10-20T19:41:39.870Z,12.91
2022-10-20T19:44:07.914Z,12.93
2022-10-20T19:46:35.473Z,12.94
2022-10-20T19:49:03.217Z,12.93
2022-10-20T19:51:31.063Z,12.90
2022-10-20T19:53:59.453Z,12.95
2022-10-20T19:56:28.510Z,12.97
2022-10-20T19:58:56.310Z,12.90
2022-10-20T20:01:24.189Z,13.00
2022-10-20T20:03:51.937Z,12.97
2022-10-20T20:06:21.964Z,12.91
2022-10-20T20:08:52.703Z,12.85
2022-10-20T20:11:26.287Z,12.85
2022-10-20T20:13:57.964Z,12.85
2022-10-20T20:16:26.058Z,12.77
2022-10-20T20:18:54.164Z,12.82
2022-10-20T20:21:23.002Z,12.90
2022-10-20T20:23:59.326Z,12.81
2022-10-20T20:26:27.975Z,12.77
2022-10-20T20:28:57.553Z,12.78
2022-10-20T20:31:25.781Z,12.74
2022-10-20T20:33:54.306Z,12.73
2022-10-20T20:36:22.531Z,12.74
2022-10-20T20:38:52.578Z,12.70
2022-10-20T20:41:24.463Z,12.72
2022-10-20T20:43:52.132Z,12.74
2022-10-20T20:46:26.863Z,12.71
2022-10-20T20:48:54.526Z,12.72
2022-10-20T20:51:22.996Z,12.72
2022-10-20T20:53:50.751Z,12.74
2022-10-20T20:56:21.779Z,12.72
2022-10-20T20:58:55.004Z,12.77
2022-10-20T21:01:27.283Z,12.78
2022-10-20T21:03:56.212Z,12.73
2022-10-20T21:06:33.086Z,12.80
2022-10-20T21:09:02.436Z,12.71
2022-10-20T21:11:30.239Z,12.75
2022-10-20T21:13:58.868Z,12.72
2022-10-20T21:16:30.280Z,12.77
2022-10-20T21:18:59.797Z,12.77
2022-10-20T21:21:29.611Z,12.76
2022-10-20T21:23:58.073Z,12.81
2022-10-20T21:26:26.397Z,12.85
2022-10-20T21:28:54.694Z,12.77
2022-10-20T21:31:24.953Z,12.77
2022-10-20T21:33:55.856Z,12.83
2022-10-20T21:36:24.036Z,12.84
2022-10-20T21:38:52.201Z,12.91
2022-10-20T21:41:21.359Z,12.88
2022-10-20T21:43:50.772Z,12.93
2022-10-20T21:46:20.622Z,12.90
2022-10-20T21:48:51.007Z,12.90
2022-10-20T21:51:23.022Z,12.93
2022-10-20T21:53:51.136Z,12.90
2022-10-20T21:56:18.665Z,12.97
2022-10-20T21:58:46.372Z,12.94
2022-10-20T22:01:16.350Z,12.95
2022-10-20T22:03:44.974Z,12.95
2022-10-20T22:06:14.598Z,13.02
2022-10-20T22:08:45.762Z,12.98
2022-10-20T22:11:15.589Z,12.97
2022-10-20T22:13:43.497Z,13.06
2022-10-20T22:16:14.954Z,12.97
2022-10-20T22:18:42.774Z,13.04
2022-10-20T22:21:13.698Z,13.03
2022-10-20T22:23:43.433Z,13.04
2022-10-20T22:26:12.006Z,13.08
2022-10-20T22:28:39.757Z,13.00
2022-10-20T22:31:08.234Z,13.08
2022-10-20T22:33:36.258Z,13.15
2022-10-20T22:36:03.970Z,13.08
2022-10-20T22:38:32.077Z,13.07
2022-10-20T22:41:01.437Z,13.04
2022-10-20T22:43:29.814Z,13.07
2022-10-20T22:45:57.666Z,13.13
2022-10-20T22:48:25.630Z,13.19
2022-10-20T22:50:53.269Z,13.28
2022-10-20T22:53:20.851Z,13.19
2022-10-20T22:55:48.417Z,13.20
2022-10-20T22:58:17.352Z,13.22
2022-10-20T23:00:44.964Z,13.24
2022-10-20T23:03:12.551Z,13.21
2022-10-20T23:05:40.079Z,13.20
2022-10-20T23:08:07.862Z,13.25
2022-10-20T23:10:35.396Z,13.23
2022-10-20T23:13:03.080Z,13.23
2022-10-20T23:15:32.050Z,13.36
2022-10-20T23:17:59.621Z,13.27
2022-10-20T23:20:27.307Z,13.28
2022-10-20T23:22:54.926Z,13.38
2022-10-20T23:25:22.476Z,13.33
2022-10-20T23:27:50.034Z,13.27
2022-10-20T23:30:17.711Z,13.28
2022-10-20T23:32:46.707Z,13.26
2022-10-20T23:35:14.513Z,13.34
2022-10-20T23:37:42.152Z,13.37
2022-10-20T23:40:10.695Z,13.39
2022-10-20T23:42:38.275Z,13.45
2022-10-20T23:45:06.818Z,13.45
2022-10-20T23:47:34.589Z,13.44
2022-10-20T23:50:03.988Z,13.47
2022-10-20T23:52:31.583Z,13.43
2022-10-20T23:54:59.414Z,13.42
2022-10-20T23:57:27.071Z,13.40
2022-10-20T23:59:54.707Z,13.39
